sensor_id;sensor_type;location;lat;lon;timestamp;temperature;humidity
33741;DHT22;20065;48.380;10.892;2023-11-19T00:02:14;7.10;99.90
33741;DHT22;20065;48.380;10.892;2023-11-19T00:05:04;7.10;99.90
33741;DHT22;20065;48.380;10.892;2023-11-19T00:07:54;7.20;99.90
33741;DHT22;20065;48.380;10.892;2023-11-19T00:10:41;7.20;99.90
33741;DHT22;20065;48.380;10.892;2023-11-19T00:13:27;7.20;99.90
33741;DHT22;20065;48.380;10.892;2023-11-19T00:16:13;7.30;99.90
33741;DHT22;20065;48.380;10.892;2023-11-19T00:18:59;7.30;99.90
33741;DHT22;20065;48.380;10.892;2023-11-19T00:21:45;7.30;99.90
33741;DHT22;20065;48.380;10.892;2023-11-19T00:24:31;7.30;99.90
33741;DHT22;20065;48.380;10.892;2023-11-19T00:27:17;7.20;99.90
33741;DHT22;20065;48.380;10.892;2023-11-19T00:30:07;7.20;99.90
33741;DHT22;20065;48.380;10.892;2023-11-19T00:32:56;7.20;99.90
33741;DHT22;20065;48.380;10.892;2023-11-19T00:35:42;7.30;99.90
33741;DHT22;20065;48.380;10.892;2023-11-19T00:38:29;7.20;99.90
33741;DHT22;20065;48.380;10.892;2023-11-19T00:41:15;7.30;99.90
33741;DHT22;20065;48.380;10.892;2023-11-19T00:44:05;7.40;99.90
33741;DHT22;20065;48.380;10.892;2023-11-19T00:46:51;7.40;99.90
33741;DHT22;20065;48.380;10.892;2023-11-19T00:49:37;7.40;99.90
33741;DHT22;20065;48.380;10.892;2023-11-19T00:52:23;7.40;99.90
33741;DHT22;20065;48.380;10.892;2023-11-19T00:55:10;7.40;99.90
33741;DHT22;20065;48.380;10.892;2023-11-19T00:57:57;7.40;99.90
33741;DHT22;20065;48.380;10.892;2023-11-19T01:00:43;7.50;99.90
33741;DHT22;20065;48.380;10.892;2023-11-19T01:03:30;7.60;99.90
33741;DHT22;20065;48.380;10.892;2023-11-19T01:06:27;7.70;99.90
33741;DHT22;20065;48.380;10.892;2023-11-19T01:09:13;7.70;99.90
33741;DHT22;20065;48.380;10.892;2023-11-19T01:12:01;7.70;99.90
33741;DHT22;20065;48.380;10.892;2023-11-19T01:14:48;7.70;99.90
33741;DHT22;20065;48.380;10.892;2023-11-19T01:17:34;7.70;99.90
33741;DHT22;20065;48.380;10.892;2023-11-19T01:20:21;7.70;99.90
33741;DHT22;20065;48.380;10.892;2023-11-19T01:23:08;7.80;99.90
33741;DHT22;20065;48.380;10.892;2023-11-19T01:25:54;7.80;99.90
33741;DHT22;20065;48.380;10.892;2023-11-19T01:28:41;7.80;99.90
33741;DHT22;20065;48.380;10.892;2023-11-19T01:31:31;7.80;99.90
33741;DHT22;20065;48.380;10.892;2023-11-19T01:34:19;7.80;99.90
33741;DHT22;20065;48.380;10.892;2023-11-19T01:37:05;7.80;99.90
33741;DHT22;20065;48.380;10.892;2023-11-19T01:39:52;7.90;99.90
33741;DHT22;20065;48.380;10.892;2023-11-19T01:42:38;7.90;99.90
33741;DHT22;20065;48.380;10.892;2023-11-19T01:45:29;7.90;99.90
33741;DHT22;20065;48.380;10.892;2023-11-19T01:48:17;7.90;99.90
33741;DHT22;20065;48.380;10.892;2023-11-19T01:51:04;8.00;99.90
33741;DHT22;20065;48.380;10.892;2023-11-19T01:53:50;8.00;99.90
33741;DHT22;20065;48.380;10.892;2023-11-19T01:56:38;8.00;99.90
33741;DHT22;20065;48.380;10.892;2023-11-19T01:59:30;8.00;99.90
33741;DHT22;20065;48.380;10.892;2023-11-19T02:02:16;8.00;99.90
33741;DHT22;20065;48.380;10.892;2023-11-19T02:05:06;8.00;99.90
33741;DHT22;20065;48.380;10.892;2023-11-19T02:07:53;8.00;99.90
33741;DHT22;20065;48.380;10.892;2023-11-19T02:10:39;8.00;99.90
33741;DHT22;20065;48.380;10.892;2023-11-19T02:13:25;8.10;99.90
33741;DHT22;20065;48.380;10.892;2023-11-19T02:16:12;8.10;99.90
33741;DHT22;20065;48.380;10.892;2023-11-19T02:18:58;8.10;99.90
33741;DHT22;20065;48.380;10.892;2023-11-19T02:21:44;8.10;99.90
33741;DHT22;20065;48.380;10.892;2023-11-19T02:24:32;8.10;99.90
33741;DHT22;20065;48.380;10.892;2023-11-19T02:27:27;8.10;99.90
33741;DHT22;20065;48.380;10.892;2023-11-19T02:30:16;8.10;99.90
33741;DHT22;20065;48.380;10.892;2023-11-19T02:33:03;8.10;99.90
33741;DHT22;20065;48.380;10.892;2023-11-19T02:35:51;8.10;99.90
33741;DHT22;20065;48.380;10.892;2023-11-19T02:38:37;8.20;99.90
33741;DHT22;20065;48.380;10.892;2023-11-19T02:41:24;8.20;99.90
33741;DHT22;20065;48.380;10.892;2023-11-19T02:44:13;8.20;99.90
33741;DHT22;20065;48.380;10.892;2023-11-19T02:46:59;8.20;99.90
33741;DHT22;20065;48.380;10.892;2023-11-19T02:49:45;8.20;99.90
33741;DHT22;20065;48.380;10.892;2023-11-19T02:52:32;8.20;99.90
33741;DHT22;20065;48.380;10.892;2023-11-19T02:55:23;8.20;99.90
33741;DHT22;20065;48.380;10.892;2023-11-19T02:58:10;8.20;99.90
33741;DHT22;20065;48.380;10.892;2023-11-19T03:01:07;8.20;99.90
33741;DHT22;20065;48.380;10.892;2023-11-19T03:04:05;8.20;99.90
33741;DHT22;20065;48.380;10.892;2023-11-19T03:06:51;8.20;99.90
33741;DHT22;20065;48.380;10.892;2023-11-19T03:09:39;8.20;99.90
33741;DHT22;20065;48.380;10.892;2023-11-19T03:12:26;8.30;99.90
33741;DHT22;20065;48.380;10.892;2023-11-19T03:15:12;8.30;99.90
33741;DHT22;20065;48.380;10.892;2023-11-19T03:17:58;8.30;99.90
33741;DHT22;20065;48.380;10.892;2023-11-19T03:20:46;8.30;99.90
33741;DHT22;20065;48.380;10.892;2023-11-19T03:23:32;8.30;99.90
33741;DHT22;20065;48.380;10.892;2023-11-19T03:26:18;8.30;99.90
33741;DHT22;20065;48.380;10.892;2023-11-19T03:29:04;8.30;99.90
33741;DHT22;20065;48.380;10.892;2023-11-19T03:31:51;8.30;99.90
33741;DHT22;20065;48.380;10.892;2023-11-19T03:34:37;8.40;99.90
33741;DHT22;20065;48.380;10.892;2023-11-19T03:37:24;8.40;99.90
33741;DHT22;20065;48.380;10.892;2023-11-19T03:40:11;8.40;99.90
33741;DHT22;20065;48.380;10.892;2023-11-19T03:42:57;8.50;99.90
33741;DHT22;20065;48.380;10.892;2023-11-19T03:45:46;8.50;99.90
33741;DHT22;20065;48.380;10.892;2023-11-19T03:48:32;8.50;99.90
33741;DHT22;20065;48.380;10.892;2023-11-19T03:51:18;8.50;99.90
33741;DHT22;20065;48.380;10.892;2023-11-19T03:54:06;8.50;99.90
33741;DHT22;20065;48.380;10.892;2023-11-19T03:56:52;8.50;99.90
33741;DHT22;20065;48.380;10.892;2023-11-19T03:59:39;8.50;99.90
33741;DHT22;20065;48.380;10.892;2023-11-19T04:02:27;8.50;99.90
33741;DHT22;20065;48.380;10.892;2023-11-19T04:05:13;8.50;99.90
33741;DHT22;20065;48.380;10.892;2023-11-19T04:07:59;8.50;99.90
33741;DHT22;20065;48.380;10.892;2023-11-19T04:10:47;8.60;99.90
33741;DHT22;20065;48.380;10.892;2023-11-19T04:13:33;8.60;99.90
33741;DHT22;20065;48.380;10.892;2023-11-19T04:16:19;8.60;99.90
33741;DHT22;20065;48.380;10.892;2023-11-19T04:19:05;8.60;99.90
33741;DHT22;20065;48.380;10.892;2023-11-19T04:21:52;8.60;99.90
33741;DHT22;20065;48.380;10.892;2023-11-19T04:24:38;8.70;99.90
33741;DHT22;20065;48.380;10.892;2023-11-19T04:27:25;8.70;99.90
33741;DHT22;20065;48.380;10.892;2023-11-19T04:30:11;8.70;99.90
33741;DHT22;20065;48.380;10.892;2023-11-19T04:32:57;8.70;99.90
33741;DHT22;20065;48.380;10.892;2023-11-19T04:35:44;8.70;99.90
33741;DHT22;20065;48.380;10.892;2023-11-19T04:38:30;8.70;99.90
33741;DHT22;20065;48.380;10.892;2023-11-19T04:41:16;8.70;99.90
33741;DHT22;20065;48.380;10.892;2023-11-19T04:44:05;8.70;99.90
33741;DHT22;20065;48.380;10.892;2023-11-19T04:46:51;8.80;99.90
33741;DHT22;20065;48.380;10.892;2023-11-19T04:49:41;8.80;99.90
33741;DHT22;20065;48.380;10.892;2023-11-19T04:52:30;8.80;99.90
33741;DHT22;20065;48.380;10.892;2023-11-19T04:55:16;8.80;99.90
33741;DHT22;20065;48.380;10.892;2023-11-19T04:58:05;8.80;99.90
33741;DHT22;20065;48.380;10.892;2023-11-19T05:00:51;8.80;99.90
33741;DHT22;20065;48.380;10.892;2023-11-19T05:03:37;8.80;99.90
33741;DHT22;20065;48.380;10.892;2023-11-19T05:06:29;8.80;99.90
33741;DHT22;20065;48.380;10.892;2023-11-19T05:09:18;8.80;99.90
33741;DHT22;20065;48.380;10.892;2023-11-19T05:12:05;8.90;99.90
33741;DHT22;20065;48.380;10.892;2023-11-19T05:14:54;8.90;99.90
33741;DHT22;20065;48.380;10.892;2023-11-19T05:17:40;8.90;99.90
33741;DHT22;20065;48.380;10.892;2023-11-19T05:20:26;8.90;99.90
33741;DHT22;20065;48.380;10.892;2023-11-19T05:23:13;8.90;99.90
33741;DHT22;20065;48.380;10.892;2023-11-19T05:26:00;8.90;99.90
33741;DHT22;20065;48.380;10.892;2023-11-19T05:28:47;8.90;99.90
33741;DHT22;20065;48.380;10.892;2023-11-19T05:31:33;9.00;99.90
33741;DHT22;20065;48.380;10.892;2023-11-19T05:34:19;8.90;99.90
33741;DHT22;20065;48.380;10.892;2023-11-19T05:37:06;8.90;99.90
33741;DHT22;20065;48.380;10.892;2023-11-19T05:39:52;9.10;99.90
33741;DHT22;20065;48.380;10.892;2023-11-19T05:42:38;9.00;99.90
33741;DHT22;20065;48.380;10.892;2023-11-19T05:45:24;9.00;99.90
33741;DHT22;20065;48.380;10.892;2023-11-19T05:48:10;8.90;99.90
33741;DHT22;20065;48.380;10.892;2023-11-19T05:51:02;9.00;99.90
33741;DHT22;20065;48.380;10.892;2023-11-19T05:53:49;9.00;99.90
33741;DHT22;20065;48.380;10.892;2023-11-19T05:56:36;9.00;99.90
33741;DHT22;20065;48.380;10.892;2023-11-19T05:59:22;9.00;99.90
33741;DHT22;20065;48.380;10.892;2023-11-19T06:02:08;9.00;99.90
33741;DHT22;20065;48.380;10.892;2023-11-19T06:04:55;9.00;99.90
33741;DHT22;20065;48.380;10.892;2023-11-19T06:07:41;9.00;99.90
33741;DHT22;20065;48.380;10.892;2023-11-19T06:10:27;9.00;99.90
33741;DHT22;20065;48.380;10.892;2023-11-19T06:13:16;9.00;99.90
33741;DHT22;20065;48.380;10.892;2023-11-19T06:16:03;9.10;99.90
33741;DHT22;20065;48.380;10.892;2023-11-19T06:18:49;9.10;99.90
33741;DHT22;20065;48.380;10.892;2023-11-19T06:21:36;9.10;99.90
33741;DHT22;20065;48.380;10.892;2023-11-19T06:24:22;9.10;99.90
33741;DHT22;20065;48.380;10.892;2023-11-19T06:27:09;9.20;99.90
33741;DHT22;20065;48.380;10.892;2023-11-19T06:29:55;9.20;99.90
33741;DHT22;20065;48.380;10.892;2023-11-19T06:32:41;9.20;99.90
33741;DHT22;20065;48.380;10.892;2023-11-19T06:35:27;9.20;99.90
33741;DHT22;20065;48.380;10.892;2023-11-19T06:38:21;9.20;99.90
33741;DHT22;20065;48.380;10.892;2023-11-19T06:41:08;9.20;99.90
33741;DHT22;20065;48.380;10.892;2023-11-19T06:43:57;9.30;99.90
33741;DHT22;20065;48.380;10.892;2023-11-19T06:46:44;9.30;99.90
33741;DHT22;20065;48.380;10.892;2023-11-19T06:49:30;9.30;99.90
33741;DHT22;20065;48.380;10.892;2023-11-19T06:52:16;9.30;99.90
33741;DHT22;20065;48.380;10.892;2023-11-19T06:55:03;9.40;99.90
33741;DHT22;20065;48.380;10.892;2023-11-19T06:57:50;9.40;99.90
33741;DHT22;20065;48.380;10.892;2023-11-19T07:00:38;9.40;99.90
33741;DHT22;20065;48.380;10.892;2023-11-19T07:03:24;9.40;99.90
33741;DHT22;20065;48.380;10.892;2023-11-19T07:06:10;9.40;99.90
33741;DHT22;20065;48.380;10.892;2023-11-19T07:08:58;9.40;99.90
33741;DHT22;20065;48.380;10.892;2023-11-19T07:11:48;9.50;99.90
33741;DHT22;20065;48.380;10.892;2023-11-19T07:14:36;9.50;99.90
33741;DHT22;20065;48.380;10.892;2023-11-19T07:17:22;9.50;99.90
33741;DHT22;20065;48.380;10.892;2023-11-19T07:20:11;9.50;99.90
33741;DHT22;20065;48.380;10.892;2023-11-19T07:23:01;9.60;99.90
33741;DHT22;20065;48.380;10.892;2023-11-19T07:25:47;9.60;99.90
33741;DHT22;20065;48.380;10.892;2023-11-19T07:28:34;9.60;99.90
33741;DHT22;20065;48.380;10.892;2023-11-19T07:31:20;9.60;99.90
33741;DHT22;20065;48.380;10.892;2023-11-19T07:34:10;9.60;99.90
33741;DHT22;20065;48.380;10.892;2023-11-19T07:36:57;9.70;99.90
33741;DHT22;20065;48.380;10.892;2023-11-19T07:39:45;9.70;99.90
33741;DHT22;20065;48.380;10.892;2023-11-19T07:42:31;9.70;99.90
33741;DHT22;20065;48.380;10.892;2023-11-19T07:45:17;9.70;99.90
33741;DHT22;20065;48.380;10.892;2023-11-19T07:48:04;9.70;99.90
33741;DHT22;20065;48.380;10.892;2023-11-19T07:50:53;9.80;99.90
33741;DHT22;20065;48.380;10.892;2023-11-19T07:53:39;9.80;99.90
33741;DHT22;20065;48.380;10.892;2023-11-19T07:56:48;9.80;99.90
33741;DHT22;20065;48.380;10.892;2023-11-19T07:59:36;9.80;99.90
33741;DHT22;20065;48.380;10.892;2023-11-19T08:02:22;9.90;99.90
33741;DHT22;20065;48.380;10.892;2023-11-19T08:05:09;9.90;99.90
33741;DHT22;20065;48.380;10.892;2023-11-19T08:07:58;9.90;99.90
33741;DHT22;20065;48.380;10.892;2023-11-19T08:10:45;9.90;99.90
33741;DHT22;20065;48.380;10.892;2023-11-19T08:13:33;10.00;99.90
33741;DHT22;20065;48.380;10.892;2023-11-19T08:16:19;10.00;99.90
33741;DHT22;20065;48.380;10.892;2023-11-19T08:19:06;10.10;99.90
33741;DHT22;20065;48.380;10.892;2023-11-19T08:21:52;10.10;99.90
33741;DHT22;20065;48.380;10.892;2023-11-19T08:24:38;10.10;99.90
33741;DHT22;20065;48.380;10.892;2023-11-19T08:27:26;10.10;99.90
33741;DHT22;20065;48.380;10.892;2023-11-19T08:30:13;10.20;99.90
33741;DHT22;20065;48.380;10.892;2023-11-19T08:32:59;10.10;99.90
33741;DHT22;20065;48.380;10.892;2023-11-19T08:35:48;10.20;99.90
33741;DHT22;20065;48.380;10.892;2023-11-19T08:38:38;10.20;99.90
33741;DHT22;20065;48.380;10.892;2023-11-19T08:41:24;10.20;99.90
33741;DHT22;20065;48.380;10.892;2023-11-19T08:44:11;10.20;99.90
33741;DHT22;20065;48.380;10.892;2023-11-19T08:46:58;10.20;99.90
33741;DHT22;20065;48.380;10.892;2023-11-19T08:49:44;10.30;99.90
33741;DHT22;20065;48.380;10.892;2023-11-19T08:52:31;10.30;99.90
33741;DHT22;20065;48.380;10.892;2023-11-19T08:55:17;10.30;99.90
33741;DHT22;20065;48.380;10.892;2023-11-19T08:58:05;10.40;99.90
33741;DHT22;20065;48.380;10.892;2023-11-19T09:00:53;10.50;99.90
33741;DHT22;20065;48.380;10.892;2023-11-19T09:03:39;10.60;99.90
33741;DHT22;20065;48.380;10.892;2023-11-19T09:06:26;10.80;99.90
33741;DHT22;20065;48.380;10.892;2023-11-19T09:09:13;10.70;99.90
33741;DHT22;20065;48.380;10.892;2023-11-19T09:12:00;10.70;99.90
33741;DHT22;20065;48.380;10.892;2023-11-19T09:14:46;10.70;99.90
33741;DHT22;20065;48.380;10.892;2023-11-19T09:17:32;10.60;99.90
33741;DHT22;20065;48.380;10.892;2023-11-19T09:20:18;10.50;99.90
33741;DHT22;20065;48.380;10.892;2023-11-19T09:23:05;10.60;99.90
33741;DHT22;20065;48.380;10.892;2023-11-19T09:25:54;10.60;99.90
33741;DHT22;20065;48.380;10.892;2023-11-19T09:28:40;10.80;99.90
33741;DHT22;20065;48.380;10.892;2023-11-19T09:31:26;10.70;99.90
33741;DHT22;20065;48.380;10.892;2023-11-19T09:34:12;10.80;99.90
33741;DHT22;20065;48.380;10.892;2023-11-19T09:36:59;10.80;99.90
33741;DHT22;20065;48.380;10.892;2023-11-19T09:39:45;10.80;99.90
33741;DHT22;20065;48.380;10.892;2023-11-19T09:42:42;11.00;99.90
33741;DHT22;20065;48.380;10.892;2023-11-19T09:45:32;11.10;99.90
33741;DHT22;20065;48.380;10.892;2023-11-19T09:48:25;11.30;99.90
33741;DHT22;20065;48.380;10.892;2023-11-19T09:51:11;11.50;99.90
33741;DHT22;20065;48.380;10.892;2023-11-19T09:53:58;11.70;99.90
33741;DHT22;20065;48.380;10.892;2023-11-19T09:56:44;12.10;99.90
33741;DHT22;20065;48.380;10.892;2023-11-19T09:59:30;12.70;99.90
33741;DHT22;20065;48.380;10.892;2023-11-19T10:02:18;13.00;99.90
33741;DHT22;20065;48.380;10.892;2023-11-19T10:05:06;12.80;99.90
33741;DHT22;20065;48.380;10.892;2023-11-19T10:07:54;13.50;99.90
33741;DHT22;20065;48.380;10.892;2023-11-19T10:10:41;14.30;99.90
33741;DHT22;20065;48.380;10.892;2023-11-19T10:13:30;14.70;99.90
33741;DHT22;20065;48.380;10.892;2023-11-19T10:16:24;13.80;99.90
33741;DHT22;20065;48.380;10.892;2023-11-19T10:19:19;13.00;99.90
33741;DHT22;20065;48.380;10.892;2023-11-19T10:22:09;12.70;99.90
33741;DHT22;20065;48.380;10.892;2023-11-19T10:25:22;12.50;99.90
33741;DHT22;20065;48.380;10.892;2023-11-19T10:29:08;12.30;99.90
33741;DHT22;20065;48.380;10.892;2023-11-19T10:31:58;12.40;99.90
33741;DHT22;20065;48.380;10.892;2023-11-19T10:34:45;12.80;99.90
33741;DHT22;20065;48.380;10.892;2023-11-19T10:37:31;13.00;99.90
33741;DHT22;20065;48.380;10.892;2023-11-19T10:40:18;12.90;99.90
33741;DHT22;20065;48.380;10.892;2023-11-19T10:43:04;12.70;99.90
33741;DHT22;20065;48.380;10.892;2023-11-19T10:45:51;12.50;99.90
33741;DHT22;20065;48.380;10.892;2023-11-19T10:48:39;12.30;99.90
33741;DHT22;20065;48.380;10.892;2023-11-19T10:51:25;12.40;99.90
33741;DHT22;20065;48.380;10.892;2023-11-19T10:54:12;12.40;99.90
33741;DHT22;20065;48.380;10.892;2023-11-19T10:57:02;12.40;99.90
33741;DHT22;20065;48.380;10.892;2023-11-19T10:59:52;12.40;99.90
33741;DHT22;20065;48.380;10.892;2023-11-19T11:02:41;12.40;99.90
33741;DHT22;20065;48.380;10.892;2023-11-19T11:05:32;12.40;99.90
33741;DHT22;20065;48.380;10.892;2023-11-19T11:08:22;12.30;99.90
33741;DHT22;20065;48.380;10.892;2023-11-19T11:11:10;12.30;99.90
33741;DHT22;20065;48.380;10.892;2023-11-19T11:14:00;12.30;99.90
33741;DHT22;20065;48.380;10.892;2023-11-19T11:16:48;12.30;99.90
33741;DHT22;20065;48.380;10.892;2023-11-19T11:19:38;12.40;99.90
33741;DHT22;20065;48.380;10.892;2023-11-19T11:23:22;12.40;99.90
33741;DHT22;20065;48.380;10.892;2023-11-19T11:38:22;12.60;99.90
33741;DHT22;20065;48.380;10.892;2023-11-19T11:41:20;12.50;99.90
33741;DHT22;20065;48.380;10.892;2023-11-19T11:44:06;12.50;99.90
33741;DHT22;20065;48.380;10.892;2023-11-19T11:46:56;12.50;99.90
33741;DHT22;20065;48.380;10.892;2023-11-19T11:49:44;12.50;99.90
33741;DHT22;20065;48.380;10.892;2023-11-19T11:52:31;12.60;99.90
33741;DHT22;20065;48.380;10.892;2023-11-19T11:55:17;12.60;99.90
33741;DHT22;20065;48.380;10.892;2023-11-19T11:58:05;12.70;99.90
33741;DHT22;20065;48.380;10.892;2023-11-19T12:00:52;12.60;99.90
33741;DHT22;20065;48.380;10.892;2023-11-19T12:03:38;12.60;99.90
33741;DHT22;20065;48.380;10.892;2023-11-19T12:06:27;12.70;99.90
33741;DHT22;20065;48.380;10.892;2023-11-19T12:09:13;12.70;99.90
33741;DHT22;20065;48.380;10.892;2023-11-19T12:15:07;12.80;99.90
33741;DHT22;20065;48.380;10.892;2023-11-19T12:17:55;12.80;99.90
33741;DHT22;20065;48.380;10.892;2023-11-19T12:20:42;12.90;99.90
33741;DHT22;20065;48.380;10.892;2023-11-19T12:23:32;12.70;99.90
33741;DHT22;20065;48.380;10.892;2023-11-19T12:26:38;13.00;99.90
33741;DHT22;20065;48.380;10.892;2023-11-19T12:29:24;12.90;99.90
33741;DHT22;20065;48.380;10.892;2023-11-19T12:32:11;13.00;99.90
33741;DHT22;20065;48.380;10.892;2023-11-19T12:34:58;13.00;99.90
33741;DHT22;20065;48.380;10.892;2023-11-19T12:37:53;13.00;99.90
33741;DHT22;20065;48.380;10.892;2023-11-19T12:40:39;12.90;99.90
33741;DHT22;20065;48.380;10.892;2023-11-19T12:43:26;13.00;99.90
33741;DHT22;20065;48.380;10.892;2023-11-19T12:46:19;12.90;99.90
33741;DHT22;20065;48.380;10.892;2023-11-19T12:49:06;12.90;99.90
33741;DHT22;20065;48.380;10.892;2023-11-19T12:51:55;12.90;99.90
33741;DHT22;20065;48.380;10.892;2023-11-19T12:54:41;12.90;99.90
33741;DHT22;20065;48.380;10.892;2023-11-19T12:57:44;12.90;99.90
33741;DHT22;20065;48.380;10.892;2023-11-19T13:00:34;12.90;99.90
33741;DHT22;20065;48.380;10.892;2023-11-19T13:03:30;12.90;99.90
33741;DHT22;20065;48.380;10.892;2023-11-19T13:06:17;12.90;99.90
33741;DHT22;20065;48.380;10.892;2023-11-19T13:09:06;12.90;99.90
33741;DHT22;20065;48.380;10.892;2023-11-19T13:12:18;13.00;99.90
33741;DHT22;20065;48.380;10.892;2023-11-19T13:15:06;13.00;99.90
33741;DHT22;20065;48.380;10.892;2023-11-19T13:17:52;13.00;99.90
33741;DHT22;20065;48.380;10.892;2023-11-19T13:20:39;12.90;99.90
33741;DHT22;20065;48.380;10.892;2023-11-19T13:23:25;12.90;99.90
33741;DHT22;20065;48.380;10.892;2023-11-19T13:26:12;12.90;99.90
33741;DHT22;20065;48.380;10.892;2023-11-19T13:29:15;12.80;99.90
33741;DHT22;20065;48.380;10.892;2023-11-19T13:32:30;12.80;99.90
33741;DHT22;20065;48.380;10.892;2023-11-19T13:35:17;12.90;99.90
33741;DHT22;20065;48.380;10.892;2023-11-19T13:38:03;12.90;99.90
33741;DHT22;20065;48.380;10.892;2023-11-19T13:40:50;13.00;99.90
33741;DHT22;20065;48.380;10.892;2023-11-19T13:43:37;13.00;99.90
33741;DHT22;20065;48.380;10.892;2023-11-19T13:46:23;13.00;99.90
33741;DHT22;20065;48.380;10.892;2023-11-19T13:49:10;13.10;99.90
33741;DHT22;20065;48.380;10.892;2023-11-19T13:51:59;13.10;99.90
33741;DHT22;20065;48.380;10.892;2023-11-19T13:54:47;13.00;99.90
33741;DHT22;20065;48.380;10.892;2023-11-19T13:57:35;13.10;99.90
33741;DHT22;20065;48.380;10.892;2023-11-19T14:00:30;13.10;99.90
33741;DHT22;20065;48.380;10.892;2023-11-19T14:03:22;13.10;99.90
33741;DHT22;20065;48.380;10.892;2023-11-19T14:06:14;13.00;99.90
33741;DHT22;20065;48.380;10.892;2023-11-19T14:09:04;13.10;99.90
33741;DHT22;20065;48.380;10.892;2023-11-19T14:11:55;13.10;99.90
33741;DHT22;20065;48.380;10.892;2023-11-19T14:14:55;13.10;99.90
33741;DHT22;20065;48.380;10.892;2023-11-19T14:17:44;13.10;99.90
33741;DHT22;20065;48.380;10.892;2023-11-19T14:20:31;13.10;99.90
33741;DHT22;20065;48.380;10.892;2023-11-19T14:23:18;13.10;99.90
33741;DHT22;20065;48.380;10.892;2023-11-19T14:26:12;13.10;99.90
33741;DHT22;20065;48.380;10.892;2023-11-19T14:28:59;13.80;99.90
33741;DHT22;20065;48.380;10.892;2023-11-19T14:31:45;13.10;99.90
33741;DHT22;20065;48.380;10.892;2023-11-19T14:34:31;13.10;99.90
33741;DHT22;20065;48.380;10.892;2023-11-19T14:37:27;13.10;99.90
33741;DHT22;20065;48.380;10.892;2023-11-19T14:40:13;13.00;99.90
33741;DHT22;20065;48.380;10.892;2023-11-19T14:42:59;13.00;99.90
33741;DHT22;20065;48.380;10.892;2023-11-19T14:45:48;13.00;99.90
33741;DHT22;20065;48.380;10.892;2023-11-19T14:48:35;13.00;99.90
33741;DHT22;20065;48.380;10.892;2023-11-19T14:51:21;13.00;99.90
33741;DHT22;20065;48.380;10.892;2023-11-19T14:54:08;12.90;99.90
33741;DHT22;20065;48.380;10.892;2023-11-19T14:56:54;12.90;99.90
33741;DHT22;20065;48.380;10.892;2023-11-19T14:59:40;12.80;99.90
33741;DHT22;20065;48.380;10.892;2023-11-19T15:02:27;12.80;99.90
33741;DHT22;20065;48.380;10.892;2023-11-19T15:05:13;12.70;99.90
33741;DHT22;20065;48.380;10.892;2023-11-19T15:08:00;12.70;99.90
33741;DHT22;20065;48.380;10.892;2023-11-19T15:10:47;12.70;99.90
33741;DHT22;20065;48.380;10.892;2023-11-19T15:13:35;12.70;99.90
33741;DHT22;20065;48.380;10.892;2023-11-19T15:16:23;12.70;99.90
33741;DHT22;20065;48.380;10.892;2023-11-19T15:19:39;12.70;99.90
33741;DHT22;20065;48.380;10.892;2023-11-19T15:22:26;12.60;99.90
33741;DHT22;20065;48.380;10.892;2023-11-19T15:25:15;12.60;99.90
33741;DHT22;20065;48.380;10.892;2023-11-19T15:28:06;12.50;99.90
33741;DHT22;20065;48.380;10.892;2023-11-19T15:31:06;12.50;99.90
33741;DHT22;20065;48.380;10.892;2023-11-19T15:33:54;12.40;99.90
33741;DHT22;20065;48.380;10.892;2023-11-19T15:36:50;12.40;99.90
33741;DHT22;20065;48.380;10.892;2023-11-19T15:44:04;12.30;99.90
33741;DHT22;20065;48.380;10.892;2023-11-19T15:46:52;12.20;99.90
33741;DHT22;20065;48.380;10.892;2023-11-19T15:49:39;12.20;99.90
33741;DHT22;20065;48.380;10.892;2023-11-19T15:52:26;12.20;99.90
33741;DHT22;20065;48.380;10.892;2023-11-19T15:55:16;12.20;99.90
33741;DHT22;20065;48.380;10.892;2023-11-19T15:58:06;12.20;99.90
33741;DHT22;20065;48.380;10.892;2023-11-19T16:01:41;12.10;99.90
33741;DHT22;20065;48.380;10.892;2023-11-19T16:04:28;12.10;99.90
33741;DHT22;20065;48.380;10.892;2023-11-19T16:07:18;12.10;99.90
33741;DHT22;20065;48.380;10.892;2023-11-19T16:10:06;12.10;99.90
33741;DHT22;20065;48.380;10.892;2023-11-19T16:12:55;12.00;99.90
33741;DHT22;20065;48.380;10.892;2023-11-19T16:15:41;12.00;99.90
33741;DHT22;20065;48.380;10.892;2023-11-19T16:18:28;12.00;99.90
33741;DHT22;20065;48.380;10.892;2023-11-19T16:21:14;12.00;99.90
33741;DHT22;20065;48.380;10.892;2023-11-19T16:24:04;12.00;99.90
33741;DHT22;20065;48.380;10.892;2023-11-19T16:26:54;12.00;99.90
33741;DHT22;20065;48.380;10.892;2023-11-19T16:29:42;12.00;99.90
33741;DHT22;20065;48.380;10.892;2023-11-19T16:32:29;12.00;99.90
33741;DHT22;20065;48.380;10.892;2023-11-19T16:35:21;12.00;99.90
33741;DHT22;20065;48.380;10.892;2023-11-19T16:38:07;12.00;99.90
33741;DHT22;20065;48.380;10.892;2023-11-19T16:40:53;12.00;99.90
33741;DHT22;20065;48.380;10.892;2023-11-19T16:43:41;12.00;99.90
33741;DHT22;20065;48.380;10.892;2023-11-19T16:46:27;12.00;99.90
33741;DHT22;20065;48.380;10.892;2023-11-19T16:49:15;12.00;99.90
33741;DHT22;20065;48.380;10.892;2023-11-19T16:52:04;12.00;99.90
33741;DHT22;20065;48.380;10.892;2023-11-19T16:54:54;11.90;99.90
33741;DHT22;20065;48.380;10.892;2023-11-19T16:57:44;11.90;99.90
33741;DHT22;20065;48.380;10.892;2023-11-19T17:00:43;11.90;99.90
33741;DHT22;20065;48.380;10.892;2023-11-19T17:03:32;11.90;99.90
33741;DHT22;20065;48.380;10.892;2023-11-19T17:06:20;11.90;99.90
33741;DHT22;20065;48.380;10.892;2023-11-19T17:09:07;11.90;99.90
33741;DHT22;20065;48.380;10.892;2023-11-19T17:12:03;11.80;99.90
33741;DHT22;20065;48.380;10.892;2023-11-19T17:14:49;11.80;99.90
33741;DHT22;20065;48.380;10.892;2023-11-19T17:17:36;11.80;99.90
33741;DHT22;20065;48.380;10.892;2023-11-19T17:20:27;11.80;99.90
33741;DHT22;20065;48.380;10.892;2023-11-19T17:23:18;11.80;99.90
33741;DHT22;20065;48.380;10.892;2023-11-19T17:26:04;11.80;99.90
33741;DHT22;20065;48.380;10.892;2023-11-19T17:28:51;11.70;99.90
33741;DHT22;20065;48.380;10.892;2023-11-19T17:31:39;11.70;99.90
33741;DHT22;20065;48.380;10.892;2023-11-19T17:34:35;11.70;99.90
33741;DHT22;20065;48.380;10.892;2023-11-19T17:37:21;11.70;99.90
33741;DHT22;20065;48.380;10.892;2023-11-19T17:40:08;11.70;99.90
33741;DHT22;20065;48.380;10.892;2023-11-19T17:43:00;11.70;99.90
33741;DHT22;20065;48.380;10.892;2023-11-19T17:45:46;11.70;99.90
33741;DHT22;20065;48.380;10.892;2023-11-19T17:48:32;11.70;99.90
33741;DHT22;20065;48.380;10.892;2023-11-19T17:51:19;11.60;99.90
33741;DHT22;20065;48.380;10.892;2023-11-19T17:54:09;11.60;99.90
33741;DHT22;20065;48.380;10.892;2023-11-19T17:56:57;11.60;99.90